createdAt,value
2023-12-09T00:01:28.022Z,88.11
2023-12-09T00:03:55.904Z,87.84
2023-12-09T00:06:25.339Z,87.82
2023-12-09T00:08:53.239Z,87.70
2023-12-09T00:11:21.408Z,88.21
2023-12-09T00:13:49.138Z,88.04
2023-12-09T00:16:17.972Z,87.47
2023-12-09T00:18:45.740Z,87.20
2023-12-09T00:21:13.823Z,87.81
2023-12-09T00:23:47.650Z,87.63
2023-12-09T00:26:16.292Z,88.93
2023-12-09T00:28:43.977Z,89.36
2023-12-09T00:31:11.629Z,89.35
2023-12-09T00:33:39.398Z,89.70
2023-12-09T00:36:07.676Z,89.79
2023-12-09T00:38:35.398Z,89.97
2023-12-09T00:41:04.731Z,89.98
2023-12-09T00:43:32.439Z,90.06
2023-12-09T00:46:00.165Z,90.18
2023-12-09T00:48:28.154Z,90.40
2023-12-09T00:50:55.995Z,90.33
2023-12-09T00:53:23.679Z,90.12
2023-12-09T00:55:54.155Z,90.31
2023-12-09T00:58:23.201Z,89.78
2023-12-09T01:00:50.969Z,89.92
2023-12-09T01:03:18.771Z,90.04
2023-12-09T01:05:46.681Z,90.04
2023-12-09T01:08:14.582Z,89.89
2023-12-09T01:10:42.242Z,90.38
2023-12-09T01:13:10.150Z,89.59
2023-12-09T01:15:39.451Z,89.85
2023-12-09T01:18:07.217Z,89.81
2023-12-09T01:20:34.904Z,89.86
2023-12-09T01:23:02.760Z,89.59
2023-12-09T01:25:30.405Z,89.81
2023-12-09T01:27:58.058Z,89.67
2023-12-09T01:30:25.746Z,89.59
2023-12-09T01:32:54.975Z,89.47
2023-12-09T01:35:22.797Z,90.00
2023-12-09T01:37:50.475Z,89.25
2023-12-09T01:40:18.256Z,88.95
2023-12-09T01:42:46.161Z,89.43
2023-12-09T01:45:14.015Z,89.33
2023-12-09T01:47:43.529Z,89.56
2023-12-09T01:50:13.227Z,89.69
2023-12-09T01:52:41.268Z,89.39
2023-12-09T01:55:11.753Z,89.44
2023-12-09T01:57:39.929Z,89.63
2023-12-09T02:00:09.328Z,88.68
2023-12-09T02:02:37.124Z,88.95
2023-12-09T02:05:05.939Z,88.82
2023-12-09T02:07:35.634Z,88.56
2023-12-09T02:10:04.469Z,88.71
2023-12-09T02:12:39.105Z,88.38
2023-12-09T02:15:10.234Z,88.28
2023-12-09T02:17:45.158Z,88.35
2023-12-09T02:20:13.466Z,88.49
2023-12-09T02:22:43.009Z,88.32
2023-12-09T02:25:12.365Z,88.53
2023-12-09T02:27:45.889Z,88.21
2023-12-09T02:30:21.694Z,88.13
2023-12-09T02:32:51.461Z,87.90
2023-12-09T02:35:21.234Z,87.89
2023-12-09T02:37:50.278Z,88.10
2023-12-09T02:40:20.603Z,87.98
2023-12-09T02:42:50.397Z,88.09
2023-12-09T02:45:20.417Z,88.00
2023-12-09T02:47:48.324Z,88.23
2023-12-09T02:50:16.482Z,87.56
2023-12-09T02:52:44.453Z,87.82
2023-12-09T02:55:13.535Z,87.86
2023-12-09T02:57:42.549Z,87.48
2023-12-09T03:00:11.375Z,87.04
2023-12-09T03:02:39.115Z,87.53
2023-12-09T03:05:07.114Z,87.48
2023-12-09T03:07:34.820Z,87.77
2023-12-09T03:10:02.437Z,87.84
2023-12-09T03:12:30.352Z,87.58
2023-12-09T03:14:59.586Z,87.80
2023-12-09T03:17:27.303Z,88.22
2023-12-09T03:19:55.013Z,87.90
2023-12-09T03:22:22.632Z,88.02
2023-12-09T03:24:50.393Z,88.27
2023-12-09T03:27:18.017Z,88.11
2023-12-09T03:29:45.714Z,87.63
2023-12-09T03:32:15.059Z,88.09
2023-12-09T03:34:45.204Z,88.17
2023-12-09T03:37:12.989Z,88.02
2023-12-09T03:39:40.740Z,87.98
2023-12-09T03:42:08.453Z,88.09
2023-12-09T03:44:36.188Z,88.30
2023-12-09T03:47:09.441Z,88.27
2023-12-09T03:49:43.768Z,88.00
2023-12-09T03:52:11.486Z,88.13
2023-12-09T03:54:40.202Z,88.11
2023-12-09T03:57:07.913Z,88.19
2023-12-09T03:59:35.629Z,88.15
2023-12-09T04:02:03.319Z,88.18
2023-12-09T04:04:31.314Z,88.18
2023-12-09T04:07:00.337Z,88.19
2023-12-09T04:09:28.121Z,88.08
2023-12-09T04:11:55.867Z,87.81
2023-12-09T04:14:23.541Z,88.19
2023-12-09T04:16:51.213Z,88.08
2023-12-09T04:19:18.971Z,88.61
2023-12-09T04:21:46.733Z,88.44
2023-12-09T04:24:15.746Z,88.44
2023-12-09T04:26:43.511Z,88.13
2023-12-09T04:29:11.280Z,88.38
2023-12-09T04:31:39.133Z,88.54
2023-12-09T04:34:06.827Z,88.84
2023-12-09T04:36:34.704Z,88.35
2023-12-09T04:39:02.424Z,88.19
2023-12-09T04:41:31.489Z,88.37
2023-12-09T04:43:59.102Z,88.80
2023-12-09T04:46:27.345Z,88.38
2023-12-09T04:48:55.134Z,88.53
2023-12-09T04:51:22.849Z,88.90
2023-12-09T04:53:51.723Z,89.01
2023-12-09T04:56:19.424Z,88.86
2023-12-09T04:58:48.527Z,89.06
2023-12-09T05:01:16.295Z,88.91
2023-12-09T05:03:44.109Z,88.87
2023-12-09T05:06:11.937Z,89.05
2023-12-09T05:08:43.134Z,88.90
2023-12-09T05:11:11.271Z,89.20
2023-12-09T05:13:38.992Z,88.79
2023-12-09T05:16:08.515Z,88.85
2023-12-09T05:18:36.512Z,89.35
2023-12-09T05:21:06.199Z,89.54
2023-12-09T05:23:34.665Z,89.37
2023-12-09T05:26:02.357Z,89.33
2023-12-09T05:28:31.257Z,89.88
2023-12-09T05:30:59.483Z,89.71
2023-12-09T05:33:28.672Z,89.56
2023-12-09T05:35:56.387Z,89.77
2023-12-09T05:38:24.058Z,89.25
2023-12-09T05:40:51.700Z,89.52
2023-12-09T05:43:19.385Z,89.57
2023-12-09T05:45:47.255Z,89.49
2023-12-09T05:48:15.142Z,89.25
2023-12-09T05:50:44.240Z,89.29
2023-12-09T05:53:11.927Z,89.71
2023-12-09T05:55:39.611Z,89.73
2023-12-09T05:58:07.973Z,89.75
2023-12-09T06:00:37.129Z,89.65
2023-12-09T06:03:05.184Z,89.45
2023-12-09T06:05:32.933Z,89.54
2023-12-09T06:08:02.079Z,90.06
2023-12-09T06:10:29.726Z,90.55
2023-12-09T06:12:57.409Z,89.82
2023-12-09T06:15:25.182Z,89.83
2023-12-09T06:17:54.308Z,90.46
2023-12-09T06:20:22.443Z,89.84
2023-12-09T06:22:50.133Z,90.46
2023-12-09T06:25:19.508Z,90.09
2023-12-09T06:27:47.193Z,90.16
2023-12-09T06:30:15.361Z,90.14
2023-12-09T06:32:44.773Z,90.21
2023-12-09T06:35:12.616Z,90.20
2023-12-09T06:37:40.275Z,90.66
2023-12-09T06:40:09.651Z,90.04
2023-12-09T06:42:39.369Z,89.94
2023-12-09T06:45:08.133Z,90.03
2023-12-09T06:47:36.264Z,90.03
2023-12-09T06:50:04.213Z,90.20
2023-12-09T06:52:31.856Z,90.24
2023-12-09T06:54:59.774Z,89.97
2023-12-09T06:57:28.315Z,90.26
2023-12-09T06:59:57.424Z,90.45
2023-12-09T07:02:25.391Z,90.18
2023-12-09T07:04:53.782Z,90.78
2023-12-09T07:07:22.566Z,90.48
2023-12-09T07:09:50.439Z,90.60
2023-12-09T07:12:18.143Z,90.39
2023-12-09T07:14:45.828Z,90.30
2023-12-09T07:17:14.922Z,90.39
2023-12-09T07:19:43.923Z,90.56
2023-12-09T07:22:11.670Z,90.06
2023-12-09T07:24:39.428Z,90.17
2023-12-09T07:27:07.146Z,90.58
2023-12-09T07:29:34.825Z,90.29
2023-12-09T07:32:02.784Z,90.60
2023-12-09T07:34:31.910Z,90.13
2023-12-09T07:36:59.647Z,90.15
2023-12-09T07:39:27.339Z,90.10
2023-12-09T07:41:55.229Z,89.80
2023-12-09T07:44:22.981Z,90.13
2023-12-09T07:46:51.933Z,89.32
2023-12-09T07:49:19.664Z,89.45
2023-12-09T07:51:48.717Z,88.88
2023-12-09T07:54:16.706Z,88.99
2023-12-09T07:56:44.460Z,88.81
2023-12-09T07:59:12.144Z,88.86
2023-12-09T08:01:41.395Z,88.76
2023-12-09T08:04:09.159Z,88.77
2023-12-09T08:06:36.954Z,88.52
2023-12-09T08:09:06.045Z,88.39
2023-12-09T08:11:33.824Z,88.41
2023-12-09T08:14:01.505Z,87.37
2023-12-09T08:16:29.186Z,87.54
2023-12-09T08:18:57.092Z,87.60
2023-12-09T08:21:25.917Z,86.87
2023-12-09T08:23:55.392Z,87.42
2023-12-09T08:26:24.451Z,86.88
2023-12-09T08:28:52.151Z,85.96
2023-12-09T08:31:19.834Z,86.45
2023-12-09T08:33:47.653Z,86.51
2023-12-09T08:36:15.639Z,86.10
2023-12-09T08:38:43.348Z,86.11
2023-12-09T08:41:11.008Z,86.36
2023-12-09T08:43:40.130Z,85.61
2023-12-09T08:46:07.798Z,86.13
2023-12-09T08:48:35.722Z,85.30
2023-12-09T08:51:04.708Z,86.05
2023-12-09T08:53:32.853Z,85.78
2023-12-09T08:56:00.540Z,86.44
2023-12-09T08:58:28.216Z,85.66
2023-12-09T09:00:57.331Z,85.53
2023-12-09T09:03:25.284Z,85.28
2023-12-09T09:05:53.146Z,85.15
2023-12-09T09:08:20.845Z,84.72
2023-12-09T09:10:48.584Z,84.34
2023-12-09T09:13:16.226Z,84.40
2023-12-09T09:15:44.193Z,85.14
2023-12-09T09:18:14.831Z,83.81
2023-12-09T09:20:43.943Z,84.13
2023-12-09T09:23:11.864Z,84.40
2023-12-09T09:25:39.568Z,84.07
2023-12-09T09:28:07.611Z,83.71
2023-12-09T09:30:35.959Z,84.26
2023-12-09T09:33:03.807Z,83.60
2023-12-09T09:35:34.214Z,83.72
2023-12-09T09:38:01.856Z,83.31
2023-12-09T09:40:29.730Z,83.26
2023-12-09T09:42:58.859Z,82.11
2023-12-09T09:45:31.500Z,82.38
2023-12-09T09:48:06.612Z,82.46
2023-12-09T09:50:43.045Z,83.39
2023-12-09T09:53:13.231Z,82.26
2023-12-09T09:55:42.477Z,83.19
2023-12-09T09:58:10.462Z,82.34
2023-12-09T10:00:39.857Z,82.97
2023-12-09T10:03:07.985Z,82.67
2023-12-09T10:05:37.130Z,82.79
2023-12-09T10:08:06.552Z,82.43
2023-12-09T10:10:35.694Z,83.05
2023-12-09T10:13:03.533Z,82.40
2023-12-09T10:15:32.892Z,82.62
2023-12-09T10:18:04.568Z,81.14
2023-12-09T10:20:32.600Z,82.84
2023-12-09T10:23:02.372Z,81.96
2023-12-09T10:25:30.319Z,81.81
2023-12-09T10:27:59.501Z,82.11
2023-12-09T10:30:27.340Z,82.47
2023-12-09T10:32:55.447Z,82.53
2023-12-09T10:35:23.487Z,81.80
2023-12-09T10:37:51.691Z,81.87
2023-12-09T10:40:23.706Z,82.39
2023-12-09T10:42:53.096Z,82.56
2023-12-09T10:45:20.894Z,82.20
2023-12-09T10:47:49.371Z,82.44
2023-12-09T10:50:18.040Z,82.64
2023-12-09T10:52:45.744Z,81.44
2023-12-09T10:55:13.583Z,82.03
2023-12-09T10:57:44.559Z,82.08
2023-12-09T11:00:16.356Z,82.52
2023-12-09T11:02:45.703Z,81.60
2023-12-09T11:05:14.170Z,81.66
2023-12-09T11:07:43.633Z,81.64
2023-12-09T11:10:12.263Z,82.01
2023-12-09T11:12:40.051Z,80.74
2023-12-09T11:15:19.451Z,81.70
2023-12-09T11:17:51.141Z,81.81
2023-12-09T11:20:21.673Z,81.93
2023-12-09T11:22:49.826Z,81.30
2023-12-09T11:25:23.625Z,81.65
2023-12-09T11:27:52.565Z,80.63
2023-12-09T11:30:36.095Z,81.57
2023-12-09T11:33:05.500Z,82.01
2023-12-09T11:35:35.261Z,81.77
2023-12-09T11:38:05.848Z,81.42
2023-12-09T11:40:34.570Z,80.73
2023-12-09T11:43:04.399Z,81.14
2023-12-09T11:45:32.218Z,81.24
2023-12-09T11:48:04.793Z,80.77
2023-12-09T11:50:32.566Z,80.44
2023-12-09T11:53:01.032Z,81.28
2023-12-09T11:55:28.707Z,81.11
2023-12-09T11:57:56.405Z,81.29
2023-12-09T12:00:24.190Z,81.87
2023-12-09T12:02:51.940Z,81.19
2023-12-09T12:05:21.293Z,80.83
2023-12-09T12:07:49.156Z,80.88
2023-12-09T12:10:17.027Z,81.14
2023-12-09T12:12:45.827Z,81.50
2023-12-09T12:15:14.589Z,81.43
2023-12-09T12:17:43.335Z,81.38
2023-12-09T12:20:13.484Z,81.13
2023-12-09T12:22:43.361Z,81.40
2023-12-09T12:25:11.734Z,80.92
2023-12-09T12:27:47.084Z,81.58
2023-12-09T12:30:15.727Z,81.71
2023-12-09T12:32:44.400Z,81.15
2023-12-09T12:35:12.714Z,82.09
2023-12-09T12:37:42.594Z,81.79
2023-12-09T12:40:13.500Z,81.61
2023-12-09T12:42:43.689Z,81.12
2023-12-09T12:45:19.319Z,81.69
2023-12-09T12:47:47.378Z,82.31
2023-12-09T12:50:15.673Z,82.07
2023-12-09T12:52:46.983Z,82.54
2023-12-09T12:55:14.792Z,81.58
2023-12-09T12:57:42.930Z,82.10
2023-12-09T13:00:13.073Z,82.13
2023-12-09T13:02:41.080Z,81.99
2023-12-09T13:05:09.265Z,81.94
2023-12-09T13:07:37.063Z,82.50
2023-12-09T13:10:07.599Z,82.02
2023-12-09T13:12:35.860Z,81.63
2023-12-09T13:15:04.057Z,81.07
2023-12-09T13:17:31.987Z,80.44
2023-12-09T13:19:59.869Z,80.15
2023-12-09T13:22:27.979Z,80.03
2023-12-09T13:24:55.982Z,80.66
2023-12-09T13:27:25.457Z,79.30
2023-12-09T13:29:53.239Z,80.25
2023-12-09T13:32:20.970Z,80.57
2023-12-09T13:34:48.782Z,80.83
2023-12-09T13:37:17.030Z,80.57
2023-12-09T13:39:45.058Z,79.29
2023-12-09T13:42:13.873Z,80.11
2023-12-09T13:44:43.166Z,79.65
2023-12-09T13:47:10.935Z,79.76
2023-12-09T13:49:38.862Z,80.63
2023-12-09T13:52:06.970Z,80.88
2023-12-09T13:54:37.574Z,80.46
2023-12-09T13:57:05.520Z,81.21
2023-12-09T13:59:33.401Z,80.67
2023-12-09T14:02:02.668Z,80.30
2023-12-09T14:04:30.508Z,81.24
2023-12-09T14:06:58.322Z,80.64
2023-12-09T14:09:26.117Z,80.00
2023-12-09T14:11:53.899Z,80.74
2023-12-09T14:14:21.721Z,80.05
2023-12-09T14:16:49.559Z,80.75
2023-12-09T14:19:18.896Z,81.42
2023-12-09T14:21:46.728Z,81.49
2023-12-09T14:24:14.613Z,83.42
2023-12-09T14:26:42.391Z,83.60
2023-12-09T14:29:10.140Z,84.47
2023-12-09T14:31:38.784Z,85.42
2023-12-09T14:34:07.307Z,86.08
2023-12-09T14:36:36.726Z,86.23
2023-12-09T14:39:04.740Z,86.43
2023-12-09T14:41:32.576Z,86.69
2023-12-09T14:44:06.095Z,86.68
2023-12-09T14:46:36.872Z,87.08
2023-12-09T14:49:05.323Z,86.46
2023-12-09T14:51:40.941Z,87.61
2023-12-09T14:54:15.451Z,87.53
2023-12-09T14:56:44.941Z,88.80
2023-12-09T14:59:13.146Z,88.74
2023-12-09T15:01:41.227Z,88.52
2023-12-09T15:04:09.222Z,89.03
2023-12-09T15:06:37.141Z,88.78
2023-12-09T15:09:05.388Z,88.45
2023-12-09T15:11:34.622Z,88.61
2023-12-09T15:14:02.527Z,89.30
2023-12-09T15:16:30.481Z,88.78
2023-12-09T15:18:58.393Z,89.54
2023-12-09T15:21:26.365Z,89.72
2023-12-09T15:23:54.243Z,90.63
2023-12-09T15:26:22.065Z,90.92
2023-12-09T15:28:54.412Z,90.58
2023-12-09T15:31:22.285Z,90.60
2023-12-09T15:33:50.276Z,90.55
2023-12-09T15:36:18.625Z,90.49
2023-12-09T15:38:46.881Z,90.65
2023-12-09T15:41:14.642Z,90.12
2023-12-09T15:43:42.465Z,90.62
2023-12-09T15:46:11.774Z,90.27
2023-12-09T15:48:41.217Z,90.42
2023-12-09T15:51:09.118Z,90.11
2023-12-09T15:53:38.599Z,89.79
2023-12-09T15:56:07.800Z,90.10
2023-12-09T15:58:36.096Z,89.40
2023-12-09T16:01:04.451Z,89.33
2023-12-09T16:03:33.925Z,90.13
2023-12-09T16:06:02.076Z,89.87
2023-12-09T16:08:29.909Z,90.34
2023-12-09T16:10:57.668Z,89.37
2023-12-09T16:13:26.051Z,87.93
2023-12-09T16:15:54.201Z,89.12
2023-12-09T16:18:22.229Z,88.11
2023-12-09T16:20:51.563Z,89.31
2023-12-09T16:23:19.324Z,88.94
2023-12-09T16:25:47.093Z,89.44
2023-12-09T16:28:14.975Z,89.00
2023-12-09T16:30:42.771Z,89.55
2023-12-09T16:33:10.659Z,89.51
2023-12-09T16:35:38.776Z,90.23
2023-12-09T16:38:10.622Z,89.92
2023-12-09T16:40:38.605Z,89.80
2023-12-09T16:43:06.463Z,89.86
2023-12-09T16:45:34.254Z,89.67
2023-12-09T16:48:02.999Z,90.08
2023-12-09T16:50:30.875Z,90.23
2023-12-09T16:52:58.608Z,89.71
2023-12-09T16:55:27.811Z,90.21
2023-12-09T16:57:55.832Z,89.59
2023-12-09T17:00:23.728Z,89.57
2023-12-09T17:02:51.567Z,90.02
2023-12-09T17:05:19.468Z,89.94
2023-12-09T17:07:47.285Z,89.98
2023-12-09T17:10:15.171Z,89.84
2023-12-09T17:12:44.305Z,89.69
2023-12-09T17:15:12.500Z,89.15
2023-12-09T17:17:40.440Z,87.83
2023-12-09T17:20:09.910Z,88.32
2023-12-09T17:22:37.678Z,88.64
2023-12-09T17:25:05.962Z,88.88
2023-12-09T17:27:33.957Z,89.38
2023-12-09T17:30:03.304Z,89.17
2023-12-09T17:32:31.247Z,89.52
2023-12-09T17:34:59.249Z,90.73
2023-12-09T17:37:27.063Z,91.16
2023-12-09T17:39:54.983Z,91.22
2023-12-09T17:42:22.864Z,92.16
2023-12-09T17:44:50.649Z,91.63
2023-12-09T17:47:19.752Z,91.83
2023-12-09T17:49:47.590Z,91.98
2023-12-09T17:52:15.377Z,91.78
2023-12-09T17:54:43.219Z,92.89
2023-12-09T17:57:11.742Z,92.41
2023-12-09T17:59:38.799Z,91.39
2023-12-09T18:02:07.152Z,91.21
2023-12-09T18:04:36.267Z,91.89
2023-12-09T18:07:04.261Z,91.96
2023-12-09T18:09:32.052Z,92.19
2023-12-09T18:12:00.085Z,91.99
2023-12-09T18:14:27.912Z,92.19
2023-12-09T18:16:57.253Z,92.01
2023-12-09T18:19:25.410Z,91.84
2023-12-09T18:21:54.763Z,92.30
2023-12-09T18:24:22.604Z,92.44
2023-12-09T18:26:51.008Z,92.62
2023-12-09T18:29:18.800Z,92.50
2023-12-09T18:31:46.670Z,92.79
2023-12-09T18:34:14.666Z,92.60
2023-12-09T18:36:43.244Z,93.18
2023-12-09T18:39:12.564Z,92.97
2023-12-09T18:41:40.345Z,93.43
2023-12-09T18:44:08.162Z,93.63
2023-12-09T18:46:35.928Z,93.66
2023-12-09T18:49:03.734Z,94.01
2023-12-09T18:51:31.628Z,93.84
2023-12-09T18:53:59.393Z,94.31
2023-12-09T18:56:28.722Z,93.84
2023-12-09T18:58:56.503Z,93.98
2023-12-09T19:01:24.379Z,94.22
2023-12-09T19:03:52.664Z,93.76
2023-12-09T19:06:20.670Z,93.92
2023-12-09T19:08:48.441Z,94.05
2023-12-09T19:11:16.233Z,93.34
2023-12-09T19:13:45.718Z,93.38
2023-12-09T19:16:13.763Z,93.32
2023-12-09T19:18:42.525Z,93.23
2023-12-09T19:21:10.381Z,93.23
2023-12-09T19:23:38.169Z,93.56
2023-12-09T19:26:06.329Z,93.31
2023-12-09T19:28:34.084Z,93.10
2023-12-09T19:31:03.239Z,93.23
2023-12-09T19:33:31.178Z,93.38
2023-12-09T19:35:59.604Z,93.74
2023-12-09T19:38:27.415Z,94.28
2023-12-09T19:40:55.132Z,94.17
2023-12-09T19:43:22.921Z,94.34
2023-12-09T19:45:51.287Z,94.75
2023-12-09T19:48:20.724Z,94.47
2023-12-09T19:50:48.685Z,94.69
2023-12-09T19:53:16.633Z,94.69
2023-12-09T19:55:44.398Z,94.50
2023-12-09T19:58:12.152Z,94.53
2023-12-09T20:00:40.992Z,94.67
2023-12-09T20:03:09.931Z,94.87
2023-12-09T20:05:39.095Z,94.94
2023-12-09T20:08:07.289Z,95.30
2023-12-09T20:10:35.066Z,95.23
2023-12-09T20:13:02.786Z,95.21
2023-12-09T20:15:31.099Z,95.55
2023-12-09T20:18:00.152Z,95.67
2023-12-09T20:20:30.227Z,95.81
2023-12-09T20:23:00.338Z,95.80
2023-12-09T20:25:28.125Z,96.08
2023-12-09T20:27:57.723Z,96.21
2023-12-09T20:30:25.533Z,95.68
2023-12-09T20:32:53.371Z,95.61
2023-12-09T20:35:21.166Z,96.39
2023-12-09T20:37:49.229Z,96.01
2023-12-09T20:40:18.508Z,95.96
2023-12-09T20:42:46.356Z,95.98
2023-12-09T20:45:14.703Z,95.59
2023-12-09T20:47:42.578Z,95.90
2023-12-09T20:50:11.284Z,95.72
2023-12-09T20:52:39.345Z,95.33
2023-12-09T20:55:08.264Z,95.37
2023-12-09T20:57:37.467Z,95.35
2023-12-09T21:00:06.692Z,95.31
2023-12-09T21:02:34.562Z,94.64
2023-12-09T21:05:04.869Z,94.78
2023-12-09T21:07:33.456Z,94.56
2023-12-09T21:10:01.228Z,94.55
2023-12-09T21:12:29.563Z,94.27
2023-12-09T21:14:59.037Z,93.98
2023-12-09T21:17:26.888Z,93.88
2023-12-09T21:19:54.851Z,93.66
2023-12-09T21:22:22.605Z,93.91
2023-12-09T21:24:50.471Z,93.58
2023-12-09T21:27:18.392Z,93.70
2023-12-09T21:29:46.188Z,93.64
2023-12-09T21:32:15.311Z,93.45
2023-12-09T21:34:43.223Z,92.81
2023-12-09T21:37:11.043Z,92.44
2023-12-09T21:39:39.150Z,92.39
2023-12-09T21:42:08.381Z,92.52
2023-12-09T21:44:36.509Z,92.09
2023-12-09T21:47:03.467Z,91.56
2023-12-09T21:49:32.704Z,91.12
2023-12-09T21:52:00.558Z,90.29
2023-12-09T21:54:28.351Z,88.75
2023-12-09T21:56:56.190Z,89.93
2023-12-09T21:59:23.935Z,89.85
2023-12-09T22:01:52.145Z,88.48
2023-12-09T22:04:20.113Z,88.93
2023-12-09T22:06:49.305Z,87.88
2023-12-09T22:09:17.061Z,87.81
2023-12-09T22:11:44.859Z,87.58
2023-12-09T22:14:12.902Z,87.64
2023-12-09T22:16:42.524Z,87.16
2023-12-09T22:19:10.377Z,88.01
2023-12-09T22:21:41.058Z,87.31
2023-12-09T22:24:10.446Z,87.20
2023-12-09T22:26:42.879Z,86.70
2023-12-09T22:29:10.705Z,88.68
2023-12-09T22:31:42.097Z,88.52
2023-12-09T22:34:10.838Z,88.28
2023-12-09T22:36:38.830Z,88.69
2023-12-09T22:39:09.102Z,89.00
2023-12-09T22:41:38.376Z,88.91
2023-12-09T22:44:06.253Z,89.17
2023-12-09T22:46:34.528Z,88.56
2023-12-09T22:49:02.949Z,87.83
2023-12-09T22:51:31.582Z,87.69
2023-12-09T22:54:00.283Z,88.55
2023-12-09T22:56:29.996Z,88.19
2023-12-09T22:59:00.431Z,86.97
2023-12-09T23:01:31.143Z,85.92
2023-12-09T23:03:59.052Z,85.55
2023-12-09T23:06:26.972Z,84.64
2023-12-09T23:08:55.559Z,85.23
2023-12-09T23:11:23.403Z,85.35
2023-12-09T23:13:51.226Z,84.57
2023-12-09T23:16:20.335Z,84.55
2023-12-09T23:18:48.299Z,84.31
2023-12-09T23:21:16.320Z,83.47
2023-12-09T23:23:44.376Z,84.34
2023-12-09T23:26:12.219Z,84.09
2023-12-09T23:28:39.978Z,84.08
2023-12-09T23:31:07.966Z,83.59
2023-12-09T23:33:37.261Z,83.61
2023-12-09T23:36:05.762Z,83.59
2023-12-09T23:38:33.521Z,84.01
2023-12-09T23:41:01.576Z,83.60
2023-12-09T23:43:29.462Z,83.17
2023-12-09T23:45:57.206Z,83.14
2023-12-09T23:48:25.123Z,82.54
2023-12-09T23:50:54.457Z,81.33
2023-12-09T23:53:22.214Z,81.80
2023-12-09T23:55:49.989Z,82.33
2023-12-09T23:58:17.957Z,81.83
